Lucinda Point, Queensland

11:06 AM EST on July 30, 2014 (GMT +1000)
Townsville International (YBTL) Elev 20 ft | 19.25 °S, 146.77 °E | Change Station

Current weather conditions updated 36 minutes ago

Mostly Cloudy
Mostly Cloudy
72 °F
Feels Like 72 °F
N
15
Wind Variable Wind from ESE

Today is forecast to be Cooler than yesterday.

Today
High -- | Low -- °F
--% Chance of Precip.
Yesterday
High -- | Low -- °F
Precip. -- in
6:43 AM 5:58 PM
Waxing Crescent, 8% visible
Pressure 30.15 in
Visibility 6.2 miles
Clouds Few 3000 ft
Scattered Clouds 6000 ft
Mostly Cloudy 30000 ft
Dew Point 59 °F
Humidity 64%
Rainfall 0.00 in
Snow Depth Not available.
UV 3 out of 12
Pollen Not available.
Air Quality Not available.
Flu Activity Not available.
METAR YBTL 300030Z 11013KT 9999 FEW030 SCT060 BKN300 22/15 Q1021 RMK HZ

More Conditions Fewer Conditions

Pressure 30.15 in
Visibility 6.2 miles
Clouds Few 3000 ft
Scattered Clouds 6000 ft
Mostly Cloudy 30000 ft
Dew Point 59 °F
Humidity 64%
Rainfall 0.00 in
Snow Depth Not available.
UV 3 out of 12
Pollen Not available.
Air Quality Not available.
Flu Activity Not available.
METAR YBTL 300030Z 11013KT 9999 FEW030 SCT060 BKN300 22/15 Q1021 RMK HZ

More Conditions Fewer Conditions

10-Day Weather Forecast

Almanac

Astronomy

Jul. 30, 2014 Rise Set
Actual Time 6:43 AM EST 5:58 PM EST
Civil Twilight 6:20 AM EST 6:21 PM EST
Nautical Twilight 5:53 AM EST 6:48 PM EST
Astronomical Twilight 5:27 AM EST 7:14 PM EST
Moon 8:29 AM EST 8:39 PM EST
Length of Visible Light 12h 01m
Length of Day
11h 15m
Tomorrow will be 0m 43s longer.
Waxing Crescent, 8% of the Moon is Illuminated
Jul 29
Waxing Crescent
Aug 3
First Quarter
Aug 10
Full
Aug 17
Last Quarter
Aug 25
New

Yesterday's Extremes

Country Highs Country Lows

Community

WunderPhotos

Upload Photos

1,738,939 photos uploaded!

Nearby

Snow Depth

Not available.

Earthquake Activity

City Distance Mag. Time & Date
No recent earthquake activity has been reported nearby.
Minimum magnitude displayed is 2.5.

Coastal Water Temperatures

Place Temperature
No Stations Reporting

Nearby Weather Stations

There are no personal weather stations in this area.